sensor_id;sensor_type;location;lat;lon;timestamp;temperature;humidity
14850;DHT22;7517;48.400;11.770;2022-07-10T00:01:37;21.80;66.60
14850;DHT22;7517;48.400;11.770;2022-07-10T00:04:04;21.80;66.60
14850;DHT22;7517;48.400;11.770;2022-07-10T00:06:34;21.80;66.60
14850;DHT22;7517;48.400;11.770;2022-07-10T00:09:01;21.80;66.30
14850;DHT22;7517;48.400;11.770;2022-07-10T00:11:29;21.70;66.10
14850;DHT22;7517;48.400;11.770;2022-07-10T00:13:56;21.70;65.90
14850;DHT22;7517;48.400;11.770;2022-07-10T00:16:25;21.70;65.70
14850;DHT22;7517;48.400;11.770;2022-07-10T00:18:54;21.70;65.90
14850;DHT22;7517;48.400;11.770;2022-07-10T00:21:21;21.60;65.90
14850;DHT22;7517;48.400;11.770;2022-07-10T00:23:48;21.60;66.20
14850;DHT22;7517;48.400;11.770;2022-07-10T00:26:16;21.60;66.50
14850;DHT22;7517;48.400;11.770;2022-07-10T00:28:43;21.60;66.80
14850;DHT22;7517;48.400;11.770;2022-07-10T00:31:10;21.50;67.10
14850;DHT22;7517;48.400;11.770;2022-07-10T00:33:39;21.50;67.50
14850;DHT22;7517;48.400;11.770;2022-07-10T00:36:06;21.40;67.50
14850;DHT22;7517;48.400;11.770;2022-07-10T00:38:34;21.40;67.60
14850;DHT22;7517;48.400;11.770;2022-07-10T00:41:02;21.30;67.80
14850;DHT22;7517;48.400;11.770;2022-07-10T00:43:29;21.30;68.20
14850;DHT22;7517;48.400;11.770;2022-07-10T00:45:56;21.20;68.90
14850;DHT22;7517;48.400;11.770;2022-07-10T00:48:23;21.20;69.20
14850;DHT22;7517;48.400;11.770;2022-07-10T00:50:52;21.20;69.80
14850;DHT22;7517;48.400;11.770;2022-07-10T00:53:19;21.10;70.60
14850;DHT22;7517;48.400;11.770;2022-07-10T00:55:46;21.10;71.00
14850;DHT22;7517;48.400;11.770;2022-07-10T00:58:14;21.00;71.20
14850;DHT22;7517;48.400;11.770;2022-07-10T01:00:42;21.00;71.30
14850;DHT22;7517;48.400;11.770;2022-07-10T01:03:10;21.00;71.40
14850;DHT22;7517;48.400;11.770;2022-07-10T01:05:37;21.00;71.60
14850;DHT22;7517;48.400;11.770;2022-07-10T01:08:06;20.90;71.70
14850;DHT22;7517;48.400;11.770;2022-07-10T01:10:33;20.90;71.90
14850;DHT22;7517;48.400;11.770;2022-07-10T01:13:01;20.90;72.80
14850;DHT22;7517;48.400;11.770;2022-07-10T01:15:29;20.80;72.30
14850;DHT22;7517;48.400;11.770;2022-07-10T01:17:58;20.80;72.50
14850;DHT22;7517;48.400;11.770;2022-07-10T01:20:30;20.80;72.60
14850;DHT22;7517;48.400;11.770;2022-07-10T01:23:00;20.70;73.30
14850;DHT22;7517;48.400;11.770;2022-07-10T01:25:27;20.70;73.30
14850;DHT22;7517;48.400;11.770;2022-07-10T01:27:55;20.70;73.20
14850;DHT22;7517;48.400;11.770;2022-07-10T01:30:22;20.70;73.10
14850;DHT22;7517;48.400;11.770;2022-07-10T01:32:50;20.70;72.90
14850;DHT22;7517;48.400;11.770;2022-07-10T01:35:17;20.70;73.10
14850;DHT22;7517;48.400;11.770;2022-07-10T01:37:45;20.60;73.40
14850;DHT22;7517;48.400;11.770;2022-07-10T01:40:14;20.60;73.60
14850;DHT22;7517;48.400;11.770;2022-07-10T01:42:41;20.60;73.70
14850;DHT22;7517;48.400;11.770;2022-07-10T01:45:09;20.60;73.70
14850;DHT22;7517;48.400;11.770;2022-07-10T01:47:37;20.60;73.80
14850;DHT22;7517;48.400;11.770;2022-07-10T01:50:05;20.50;73.70
14850;DHT22;7517;48.400;11.770;2022-07-10T01:52:33;20.50;73.80
14850;DHT22;7517;48.400;11.770;2022-07-10T01:55:01;20.50;73.80
14850;DHT22;7517;48.400;11.770;2022-07-10T01:57:35;20.50;73.90
14850;DHT22;7517;48.400;11.770;2022-07-10T02:00:03;20.50;74.00
14850;DHT22;7517;48.400;11.770;2022-07-10T02:02:32;20.50;74.00
14850;DHT22;7517;48.400;11.770;2022-07-10T02:04:59;20.50;73.90
14850;DHT22;7517;48.400;11.770;2022-07-10T02:07:25;20.50;73.90
14850;DHT22;7517;48.400;11.770;2022-07-10T02:09:55;20.50;74.00
14850;DHT22;7517;48.400;11.770;2022-07-10T02:12:22;20.40;74.10
14850;DHT22;7517;48.400;11.770;2022-07-10T02:14:51;20.40;74.00
14850;DHT22;7517;48.400;11.770;2022-07-10T02:17:18;20.40;74.00
14850;DHT22;7517;48.400;11.770;2022-07-10T02:19:46;20.40;74.30
14850;DHT22;7517;48.400;11.770;2022-07-10T02:22:13;20.40;74.30
14850;DHT22;7517;48.400;11.770;2022-07-10T02:24:40;20.30;74.30
14850;DHT22;7517;48.400;11.770;2022-07-10T02:27:07;20.30;74.60
14850;DHT22;7517;48.400;11.770;2022-07-10T02:29:35;20.30;75.50
14850;DHT22;7517;48.400;11.770;2022-07-10T02:32:05;20.30;74.70
14850;DHT22;7517;48.400;11.770;2022-07-10T02:34:33;20.30;74.90
14850;DHT22;7517;48.400;11.770;2022-07-10T02:37:00;20.30;74.90
14850;DHT22;7517;48.400;11.770;2022-07-10T02:39:27;20.30;75.00
14850;DHT22;7517;48.400;11.770;2022-07-10T02:41:54;20.30;75.00
14850;DHT22;7517;48.400;11.770;2022-07-10T02:44:21;20.30;75.00
14850;DHT22;7517;48.400;11.770;2022-07-10T02:46:49;20.30;75.10
14850;DHT22;7517;48.400;11.770;2022-07-10T02:49:17;20.30;75.10
14850;DHT22;7517;48.400;11.770;2022-07-10T02:51:44;20.30;75.00
14850;DHT22;7517;48.400;11.770;2022-07-10T02:54:12;20.20;74.70
14850;DHT22;7517;48.400;11.770;2022-07-10T02:56:39;20.20;75.20
14850;DHT22;7517;48.400;11.770;2022-07-10T02:59:06;20.20;74.30
14850;DHT22;7517;48.400;11.770;2022-07-10T03:01:33;20.20;74.20
14850;DHT22;7517;48.400;11.770;2022-07-10T03:04:01;20.20;74.20
14850;DHT22;7517;48.400;11.770;2022-07-10T03:06:30;20.10;74.00
14850;DHT22;7517;48.400;11.770;2022-07-10T03:08:58;20.10;74.10
14850;DHT22;7517;48.400;11.770;2022-07-10T03:11:25;20.10;74.00
14850;DHT22;7517;48.400;11.770;2022-07-10T03:13:52;20.10;73.80
14850;DHT22;7517;48.400;11.770;2022-07-10T03:16:20;20.00;73.60
14850;DHT22;7517;48.400;11.770;2022-07-10T03:18:47;20.00;73.60
14850;DHT22;7517;48.400;11.770;2022-07-10T03:21:14;20.00;73.70
14850;DHT22;7517;48.400;11.770;2022-07-10T03:23:43;20.00;73.60
14850;DHT22;7517;48.400;11.770;2022-07-10T03:26:10;19.90;73.60
14850;DHT22;7517;48.400;11.770;2022-07-10T03:28:37;19.90;73.70
14850;DHT22;7517;48.400;11.770;2022-07-10T03:31:05;19.90;73.80
14850;DHT22;7517;48.400;11.770;2022-07-10T03:33:32;19.80;73.90
14850;DHT22;7517;48.400;11.770;2022-07-10T03:35:59;19.80;74.10
14850;DHT22;7517;48.400;11.770;2022-07-10T03:38:28;19.80;74.20
14850;DHT22;7517;48.400;11.770;2022-07-10T03:40:57;19.80;74.30
14850;DHT22;7517;48.400;11.770;2022-07-10T03:43:24;19.80;74.40
14850;DHT22;7517;48.400;11.770;2022-07-10T03:45:51;19.80;74.40
14850;DHT22;7517;48.400;11.770;2022-07-10T03:48:19;19.70;74.30
14850;DHT22;7517;48.400;11.770;2022-07-10T03:50:49;19.70;74.30
14850;DHT22;7517;48.400;11.770;2022-07-10T03:53:17;19.70;74.30
14850;DHT22;7517;48.400;11.770;2022-07-10T03:55:45;19.70;74.20
14850;DHT22;7517;48.400;11.770;2022-07-10T03:58:14;19.70;74.30
14850;DHT22;7517;48.400;11.770;2022-07-10T04:00:40;19.70;74.30
14850;DHT22;7517;48.400;11.770;2022-07-10T04:03:08;19.70;74.30
14850;DHT22;7517;48.400;11.770;2022-07-10T04:05:35;19.70;74.20
14850;DHT22;7517;48.400;11.770;2022-07-10T04:08:03;19.60;74.10
14850;DHT22;7517;48.400;11.770;2022-07-10T04:10:32;19.60;74.20
14850;DHT22;7517;48.400;11.770;2022-07-10T04:12:59;19.60;74.30
14850;DHT22;7517;48.400;11.770;2022-07-10T04:15:28;19.60;74.30
14850;DHT22;7517;48.400;11.770;2022-07-10T04:17:55;19.60;74.40
14850;DHT22;7517;48.400;11.770;2022-07-10T04:20:22;19.60;74.30
14850;DHT22;7517;48.400;11.770;2022-07-10T04:22:50;19.50;74.30
14850;DHT22;7517;48.400;11.770;2022-07-10T04:25:17;19.50;74.30
14850;DHT22;7517;48.400;11.770;2022-07-10T04:27:45;19.50;74.40
14850;DHT22;7517;48.400;11.770;2022-07-10T04:30:12;19.50;74.40
14850;DHT22;7517;48.400;11.770;2022-07-10T04:32:40;19.50;74.60
14850;DHT22;7517;48.400;11.770;2022-07-10T04:35:08;19.50;74.70
14850;DHT22;7517;48.400;11.770;2022-07-10T04:37:35;19.50;74.60
14850;DHT22;7517;48.400;11.770;2022-07-10T04:40:04;19.50;75.30
14850;DHT22;7517;48.400;11.770;2022-07-10T04:42:31;19.50;74.70
14850;DHT22;7517;48.400;11.770;2022-07-10T04:44:59;19.50;74.60
14850;DHT22;7517;48.400;11.770;2022-07-10T04:47:26;19.50;74.70
14850;DHT22;7517;48.400;11.770;2022-07-10T04:49:55;19.50;74.70
14850;DHT22;7517;48.400;11.770;2022-07-10T04:52:22;19.50;74.90
14850;DHT22;7517;48.400;11.770;2022-07-10T04:54:49;19.50;74.90
14850;DHT22;7517;48.400;11.770;2022-07-10T04:57:16;19.50;75.00
14850;DHT22;7517;48.400;11.770;2022-07-10T04:59:44;19.50;75.00
14850;DHT22;7517;48.400;11.770;2022-07-10T05:02:11;19.50;74.90
14850;DHT22;7517;48.400;11.770;2022-07-10T05:04:38;19.50;75.00
14850;DHT22;7517;48.400;11.770;2022-07-10T05:07:07;19.50;75.00
14850;DHT22;7517;48.400;11.770;2022-07-10T05:09:34;19.50;75.20
14850;DHT22;7517;48.400;11.770;2022-07-10T05:12:01;19.50;75.30
14850;DHT22;7517;48.400;11.770;2022-07-10T05:14:29;19.50;75.10
14850;DHT22;7517;48.400;11.770;2022-07-10T05:16:56;19.50;75.10
14850;DHT22;7517;48.400;11.770;2022-07-10T05:19:23;19.50;75.10
14850;DHT22;7517;48.400;11.770;2022-07-10T05:21:51;19.60;75.10
14850;DHT22;7517;48.400;11.770;2022-07-10T05:24:19;19.60;75.20
14850;DHT22;7517;48.400;11.770;2022-07-10T05:26:47;19.60;75.20
14850;DHT22;7517;48.400;11.770;2022-07-10T05:29:14;19.60;75.10
14850;DHT22;7517;48.400;11.770;2022-07-10T05:31:41;19.70;75.00
14850;DHT22;7517;48.400;11.770;2022-07-10T05:34:08;19.70;75.00
14850;DHT22;7517;48.400;11.770;2022-07-10T05:36:36;19.70;75.00
14850;DHT22;7517;48.400;11.770;2022-07-10T05:39:03;19.70;75.00
14850;DHT22;7517;48.400;11.770;2022-07-10T05:41:31;19.80;74.90
14850;DHT22;7517;48.400;11.770;2022-07-10T05:43:59;19.80;74.60
14850;DHT22;7517;48.400;11.770;2022-07-10T05:46:26;19.80;74.40
14850;DHT22;7517;48.400;11.770;2022-07-10T05:48:53;19.80;74.30
14850;DHT22;7517;48.400;11.770;2022-07-10T05:51:21;19.80;74.30
14850;DHT22;7517;48.400;11.770;2022-07-10T05:53:48;19.80;74.40
14850;DHT22;7517;48.400;11.770;2022-07-10T05:56:15;19.80;74.40
14850;DHT22;7517;48.400;11.770;2022-07-10T05:58:44;19.80;74.40
14850;DHT22;7517;48.400;11.770;2022-07-10T06:01:11;19.80;74.50
14850;DHT22;7517;48.400;11.770;2022-07-10T06:03:39;19.80;74.50
14850;DHT22;7517;48.400;11.770;2022-07-10T06:06:06;19.90;74.70
14850;DHT22;7517;48.400;11.770;2022-07-10T06:08:34;19.90;74.70
14850;DHT22;7517;48.400;11.770;2022-07-10T06:11:01;20.00;74.70
14850;DHT22;7517;48.400;11.770;2022-07-10T06:13:28;20.00;74.60
14850;DHT22;7517;48.400;11.770;2022-07-10T06:15:57;20.00;74.30
14850;DHT22;7517;48.400;11.770;2022-07-10T06:18:24;20.10;74.00
14850;DHT22;7517;48.400;11.770;2022-07-10T06:20:51;20.10;73.50
14850;DHT22;7517;48.400;11.770;2022-07-10T06:23:18;20.10;73.30
14850;DHT22;7517;48.400;11.770;2022-07-10T06:25:45;20.10;73.20
14850;DHT22;7517;48.400;11.770;2022-07-10T06:28:16;20.20;73.30
14850;DHT22;7517;48.400;11.770;2022-07-10T06:30:43;20.20;73.40
14850;DHT22;7517;48.400;11.770;2022-07-10T06:33:13;20.20;73.40
14850;DHT22;7517;48.400;11.770;2022-07-10T06:35:41;20.30;73.40
14850;DHT22;7517;48.400;11.770;2022-07-10T06:38:08;20.30;73.10
14850;DHT22;7517;48.400;11.770;2022-07-10T06:40:37;20.30;72.90
14850;DHT22;7517;48.400;11.770;2022-07-10T06:43:04;20.40;72.70
14850;DHT22;7517;48.400;11.770;2022-07-10T06:45:32;20.40;72.50
14850;DHT22;7517;48.400;11.770;2022-07-10T06:47:59;20.40;72.50
14850;DHT22;7517;48.400;11.770;2022-07-10T06:50:29;20.50;72.40
14850;DHT22;7517;48.400;11.770;2022-07-10T06:52:57;20.50;72.20
14850;DHT22;7517;48.400;11.770;2022-07-10T06:55:25;20.60;72.10
14850;DHT22;7517;48.400;11.770;2022-07-10T06:57:53;20.60;71.70
14850;DHT22;7517;48.400;11.770;2022-07-10T07:00:21;20.70;71.40
14850;DHT22;7517;48.400;11.770;2022-07-10T07:02:49;20.70;71.30
14850;DHT22;7517;48.400;11.770;2022-07-10T07:05:16;20.80;71.20
14850;DHT22;7517;48.400;11.770;2022-07-10T07:07:45;20.80;71.10
14850;DHT22;7517;48.400;11.770;2022-07-10T07:10:12;20.90;71.00
14850;DHT22;7517;48.400;11.770;2022-07-10T07:12:39;20.90;70.80
14850;DHT22;7517;48.400;11.770;2022-07-10T07:15:08;20.90;70.80
14850;DHT22;7517;48.400;11.770;2022-07-10T07:17:39;21.00;70.70
14850;DHT22;7517;48.400;11.770;2022-07-10T07:20:24;21.00;70.30
14850;DHT22;7517;48.400;11.770;2022-07-10T07:23:10;21.10;70.10
14850;DHT22;7517;48.400;11.770;2022-07-10T07:25:37;21.10;70.00
14850;DHT22;7517;48.400;11.770;2022-07-10T07:28:08;21.20;70.20
14850;DHT22;7517;48.400;11.770;2022-07-10T07:30:36;21.20;70.10
14850;DHT22;7517;48.400;11.770;2022-07-10T07:33:03;21.30;70.40
14850;DHT22;7517;48.400;11.770;2022-07-10T07:35:30;21.30;69.80
14850;DHT22;7517;48.400;11.770;2022-07-10T07:37:57;21.40;69.70
14850;DHT22;7517;48.400;11.770;2022-07-10T07:40:26;21.40;69.60
14850;DHT22;7517;48.400;11.770;2022-07-10T07:42:54;21.50;69.70
14850;DHT22;7517;48.400;11.770;2022-07-10T07:45:22;21.50;69.30
14850;DHT22;7517;48.400;11.770;2022-07-10T07:47:51;21.50;69.90
14850;DHT22;7517;48.400;11.770;2022-07-10T07:50:21;21.60;70.30
14850;DHT22;7517;48.400;11.770;2022-07-10T07:52:51;21.70;70.70
14850;DHT22;7517;48.400;11.770;2022-07-10T07:55:19;21.80;70.00
14850;DHT22;7517;48.400;11.770;2022-07-10T07:57:51;21.90;68.80
14850;DHT22;7517;48.400;11.770;2022-07-10T08:00:19;22.10;68.00
14850;DHT22;7517;48.400;11.770;2022-07-10T08:02:48;22.20;67.60
14850;DHT22;7517;48.400;11.770;2022-07-10T08:05:16;22.30;67.30
14850;DHT22;7517;48.400;11.770;2022-07-10T08:07:45;22.30;67.50
14850;DHT22;7517;48.400;11.770;2022-07-10T08:10:15;22.50;66.90
14850;DHT22;7517;48.400;11.770;2022-07-10T08:12:52;22.60;65.20
14850;DHT22;7517;48.400;11.770;2022-07-10T08:15:29;22.70;65.20
14850;DHT22;7517;48.400;11.770;2022-07-10T08:18:03;22.70;64.10
14850;DHT22;7517;48.400;11.770;2022-07-10T08:20:33;22.70;64.00
14850;DHT22;7517;48.400;11.770;2022-07-10T08:23:04;22.80;63.20
14850;DHT22;7517;48.400;11.770;2022-07-10T08:25:37;22.80;63.20
14850;DHT22;7517;48.400;11.770;2022-07-10T08:28:10;22.80;62.60
14850;DHT22;7517;48.400;11.770;2022-07-10T08:30:38;22.90;62.70
14850;DHT22;7517;48.400;11.770;2022-07-10T08:33:08;22.90;62.20
14850;DHT22;7517;48.400;11.770;2022-07-10T08:35:47;23.00;61.60
14850;DHT22;7517;48.400;11.770;2022-07-10T08:38:16;23.10;61.70
14850;DHT22;7517;48.400;11.770;2022-07-10T08:40:44;23.10;61.70
14850;DHT22;7517;48.400;11.770;2022-07-10T08:43:21;23.20;60.20
14850;DHT22;7517;48.400;11.770;2022-07-10T08:45:51;23.30;60.10
14850;DHT22;7517;48.400;11.770;2022-07-10T08:48:27;23.40;59.80
14850;DHT22;7517;48.400;11.770;2022-07-10T08:51:01;23.50;59.20
14850;DHT22;7517;48.400;11.770;2022-07-10T08:53:38;23.50;59.00
14850;DHT22;7517;48.400;11.770;2022-07-10T08:56:10;23.60;58.90
14850;DHT22;7517;48.400;11.770;2022-07-10T08:58:40;23.70;58.60
14850;DHT22;7517;48.400;11.770;2022-07-10T09:01:10;23.80;58.10
14850;DHT22;7517;48.400;11.770;2022-07-10T09:03:44;23.90;58.70
14850;DHT22;7517;48.400;11.770;2022-07-10T09:06:17;24.00;58.30
14850;DHT22;7517;48.400;11.770;2022-07-10T09:09:02;24.10;57.30
14850;DHT22;7517;48.400;11.770;2022-07-10T09:11:32;24.20;56.60
14850;DHT22;7517;48.400;11.770;2022-07-10T09:14:03;24.20;57.30
14850;DHT22;7517;48.400;11.770;2022-07-10T09:16:35;24.30;56.50
14850;DHT22;7517;48.400;11.770;2022-07-10T09:19:19;24.40;56.10
14850;DHT22;7517;48.400;11.770;2022-07-10T09:21:52;24.50;55.10
14850;DHT22;7517;48.400;11.770;2022-07-10T09:24:22;24.60;55.10
14850;DHT22;7517;48.400;11.770;2022-07-10T09:27:13;24.60;55.30
14850;DHT22;7517;48.400;11.770;2022-07-10T09:29:55;24.70;54.80
14850;DHT22;7517;48.400;11.770;2022-07-10T09:32:36;24.80;54.80
14850;DHT22;7517;48.400;11.770;2022-07-10T09:35:08;24.80;54.60
14850;DHT22;7517;48.400;11.770;2022-07-10T09:38:03;24.90;54.20
14850;DHT22;7517;48.400;11.770;2022-07-10T09:40:41;24.90;54.40
14850;DHT22;7517;48.400;11.770;2022-07-10T09:46:14;25.10;54.30
14850;DHT22;7517;48.400;11.770;2022-07-10T09:48:43;25.20;55.00
14850;DHT22;7517;48.400;11.770;2022-07-10T09:51:15;25.40;54.70
14850;DHT22;7517;48.400;11.770;2022-07-10T09:53:46;25.60;53.70
14850;DHT22;7517;48.400;11.770;2022-07-10T09:56:14;25.70;52.90
14850;DHT22;7517;48.400;11.770;2022-07-10T09:58:41;25.80;52.80
14850;DHT22;7517;48.400;11.770;2022-07-10T10:01:15;26.00;53.00
14850;DHT22;7517;48.400;11.770;2022-07-10T10:03:44;26.20;52.00
14850;DHT22;7517;48.400;11.770;2022-07-10T10:06:17;26.30;51.90
14850;DHT22;7517;48.400;11.770;2022-07-10T10:08:51;26.50;51.90
14850;DHT22;7517;48.400;11.770;2022-07-10T10:11:26;26.70;50.40
14850;DHT22;7517;48.400;11.770;2022-07-10T10:13:55;26.90;50.50
14850;DHT22;7517;48.400;11.770;2022-07-10T10:16:25;27.00;50.70
14850;DHT22;7517;48.400;11.770;2022-07-10T10:18:55;27.20;50.80
14850;DHT22;7517;48.400;11.770;2022-07-10T10:21:40;27.30;50.60
14850;DHT22;7517;48.400;11.770;2022-07-10T10:24:07;27.40;49.60
14850;DHT22;7517;48.400;11.770;2022-07-10T10:26:35;27.40;49.30
14850;DHT22;7517;48.400;11.770;2022-07-10T10:29:04;27.50;48.40
14850;DHT22;7517;48.400;11.770;2022-07-10T10:31:34;27.30;47.10
14850;DHT22;7517;48.400;11.770;2022-07-10T10:34:03;27.30;48.00
14850;DHT22;7517;48.400;11.770;2022-07-10T10:36:46;27.20;47.80
14850;DHT22;7517;48.400;11.770;2022-07-10T10:39:16;27.20;47.40
14850;DHT22;7517;48.400;11.770;2022-07-10T10:41:50;27.10;47.50
14850;DHT22;7517;48.400;11.770;2022-07-10T10:44:26;27.10;47.50
14850;DHT22;7517;48.400;11.770;2022-07-10T10:47:04;27.00;46.10
14850;DHT22;7517;48.400;11.770;2022-07-10T10:50:09;26.90;46.90
14850;DHT22;7517;48.400;11.770;2022-07-10T10:53:20;26.90;46.70
14850;DHT22;7517;48.400;11.770;2022-07-10T10:56:25;26.80;47.10
14850;DHT22;7517;48.400;11.770;2022-07-10T10:59:50;26.90;46.70
14850;DHT22;7517;48.400;11.770;2022-07-10T11:02:48;26.90;45.10
14850;DHT22;7517;48.400;11.770;2022-07-10T11:05:50;26.80;45.90
14850;DHT22;7517;48.400;11.770;2022-07-10T11:08:43;26.60;44.80
14850;DHT22;7517;48.400;11.770;2022-07-10T11:11:37;26.50;45.70
14850;DHT22;7517;48.400;11.770;2022-07-10T11:14:07;26.40;44.70
14850;DHT22;7517;48.400;11.770;2022-07-10T11:16:45;26.20;45.40
14850;DHT22;7517;48.400;11.770;2022-07-10T11:19:21;26.00;45.40
14850;DHT22;7517;48.400;11.770;2022-07-10T11:25:15;25.80;44.70
14850;DHT22;7517;48.400;11.770;2022-07-10T11:28:04;25.70;44.90
14850;DHT22;7517;48.400;11.770;2022-07-10T11:30:47;25.60;45.00
14850;DHT22;7517;48.400;11.770;2022-07-10T11:33:17;25.50;45.00
14850;DHT22;7517;48.400;11.770;2022-07-10T11:35:48;25.40;45.10
14850;DHT22;7517;48.400;11.770;2022-07-10T11:38:20;25.30;45.00
14850;DHT22;7517;48.400;11.770;2022-07-10T11:40:48;25.20;45.00
14850;DHT22;7517;48.400;11.770;2022-07-10T11:43:16;25.10;45.10
14850;DHT22;7517;48.400;11.770;2022-07-10T11:45:45;24.90;45.20
14850;DHT22;7517;48.400;11.770;2022-07-10T11:48:19;24.90;44.60
14850;DHT22;7517;48.400;11.770;2022-07-10T11:50:50;24.80;44.80
14850;DHT22;7517;48.400;11.770;2022-07-10T11:53:22;24.70;45.20
14850;DHT22;7517;48.400;11.770;2022-07-10T11:55:50;24.60;45.30
14850;DHT22;7517;48.400;11.770;2022-07-10T11:58:18;24.60;45.20
14850;DHT22;7517;48.400;11.770;2022-07-10T12:00:57;24.60;45.50
14850;DHT22;7517;48.400;11.770;2022-07-10T12:03:27;24.50;45.10
14850;DHT22;7517;48.400;11.770;2022-07-10T12:05:55;24.50;45.50
14850;DHT22;7517;48.400;11.770;2022-07-10T12:08:29;24.50;46.00
14850;DHT22;7517;48.400;11.770;2022-07-10T12:11:11;24.40;46.00
14850;DHT22;7517;48.400;11.770;2022-07-10T12:13:39;24.50;45.50
14850;DHT22;7517;48.400;11.770;2022-07-10T12:16:07;24.40;46.40
14850;DHT22;7517;48.400;11.770;2022-07-10T12:18:34;24.50;46.20
14850;DHT22;7517;48.400;11.770;2022-07-10T12:21:03;24.50;46.10
14850;DHT22;7517;48.400;11.770;2022-07-10T12:23:31;24.50;45.80
14850;DHT22;7517;48.400;11.770;2022-07-10T12:26:00;24.60;46.00
14850;DHT22;7517;48.400;11.770;2022-07-10T12:28:28;24.70;45.70
14850;DHT22;7517;48.400;11.770;2022-07-10T12:30:57;24.70;45.90
14850;DHT22;7517;48.400;11.770;2022-07-10T12:33:25;24.70;45.40
14850;DHT22;7517;48.400;11.770;2022-07-10T12:35:54;24.70;45.50
14850;DHT22;7517;48.400;11.770;2022-07-10T12:38:24;24.70;45.00
14850;DHT22;7517;48.400;11.770;2022-07-10T12:41:06;24.70;45.80
14850;DHT22;7517;48.400;11.770;2022-07-10T12:43:34;24.70;44.30
14850;DHT22;7517;48.400;11.770;2022-07-10T12:46:10;24.70;45.10
14850;DHT22;7517;48.400;11.770;2022-07-10T12:48:39;24.70;45.20
14850;DHT22;7517;48.400;11.770;2022-07-10T12:51:21;24.70;44.80
14850;DHT22;7517;48.400;11.770;2022-07-10T12:53:51;24.70;44.10
14850;DHT22;7517;48.400;11.770;2022-07-10T12:56:32;24.70;45.40
14850;DHT22;7517;48.400;11.770;2022-07-10T12:59:02;24.70;44.20
14850;DHT22;7517;48.400;11.770;2022-07-10T13:01:40;24.70;44.50
14850;DHT22;7517;48.400;11.770;2022-07-10T13:04:08;24.70;44.10
14850;DHT22;7517;48.400;11.770;2022-07-10T13:06:36;24.60;44.10
14850;DHT22;7517;48.400;11.770;2022-07-10T13:09:20;24.60;43.90
14850;DHT22;7517;48.400;11.770;2022-07-10T13:11:49;24.60;43.90
14850;DHT22;7517;48.400;11.770;2022-07-10T13:14:16;24.50;44.60
14850;DHT22;7517;48.400;11.770;2022-07-10T13:16:43;24.40;44.40
14850;DHT22;7517;48.400;11.770;2022-07-10T13:19:11;24.40;44.10
14850;DHT22;7517;48.400;11.770;2022-07-10T13:21:38;24.40;44.30
14850;DHT22;7517;48.400;11.770;2022-07-10T13:24:05;24.30;44.50
14850;DHT22;7517;48.400;11.770;2022-07-10T13:26:34;24.20;44.50
14850;DHT22;7517;48.400;11.770;2022-07-10T13:29:02;24.20;44.30
14850;DHT22;7517;48.400;11.770;2022-07-10T13:31:29;24.20;44.40
14850;DHT22;7517;48.400;11.770;2022-07-10T13:33:56;24.20;44.60
14850;DHT22;7517;48.400;11.770;2022-07-10T13:36:24;24.10;44.40
14850;DHT22;7517;48.400;11.770;2022-07-10T13:38:51;24.10;44.50
14850;DHT22;7517;48.400;11.770;2022-07-10T13:41:20;24.10;44.20
14850;DHT22;7517;48.400;11.770;2022-07-10T13:43:49;24.10;44.00
14850;DHT22;7517;48.400;11.770;2022-07-10T13:46:16;24.20;44.70
14850;DHT22;7517;48.400;11.770;2022-07-10T13:48:43;24.20;45.00
14850;DHT22;7517;48.400;11.770;2022-07-10T13:51:11;24.20;44.50
14850;DHT22;7517;48.400;11.770;2022-07-10T13:53:38;24.30;44.40
14850;DHT22;7517;48.400;11.770;2022-07-10T13:56:06;24.30;44.80
14850;DHT22;7517;48.400;11.770;2022-07-10T13:58:34;24.30;43.60
14850;DHT22;7517;48.400;11.770;2022-07-10T14:01:04;24.30;43.60
14850;DHT22;7517;48.400;11.770;2022-07-10T14:03:31;24.40;44.20
14850;DHT22;7517;48.400;11.770;2022-07-10T14:05:59;24.40;44.40
14850;DHT22;7517;48.400;11.770;2022-07-10T14:08:26;24.40;44.00
14850;DHT22;7517;48.400;11.770;2022-07-10T14:10:53;24.40;44.00
14850;DHT22;7517;48.400;11.770;2022-07-10T14:13:20;24.40;44.20
14850;DHT22;7517;48.400;11.770;2022-07-10T14:15:47;24.40;44.30
14850;DHT22;7517;48.400;11.770;2022-07-10T14:18:16;24.40;43.90
14850;DHT22;7517;48.400;11.770;2022-07-10T14:21:00;24.30;43.90
14850;DHT22;7517;48.400;11.770;2022-07-10T14:23:30;24.30;43.90
14850;DHT22;7517;48.400;11.770;2022-07-10T14:25:58;24.30;44.10
14850;DHT22;7517;48.400;11.770;2022-07-10T14:28:25;24.30;44.40
14850;DHT22;7517;48.400;11.770;2022-07-10T14:30:52;24.30;44.30
14850;DHT22;7517;48.400;11.770;2022-07-10T14:33:21;24.30;43.80
14850;DHT22;7517;48.400;11.770;2022-07-10T14:35:48;24.40;43.60
14850;DHT22;7517;48.400;11.770;2022-07-10T14:38:16;24.30;43.60
14850;DHT22;7517;48.400;11.770;2022-07-10T14:40:43;24.30;43.80
14850;DHT22;7517;48.400;11.770;2022-07-10T14:43:10;24.30;44.00
14850;DHT22;7517;48.400;11.770;2022-07-10T14:45:37;24.40;43.80
14850;DHT22;7517;48.400;11.770;2022-07-10T14:48:05;24.40;43.50
14850;DHT22;7517;48.400;11.770;2022-07-10T14:50:34;24.40;44.20
14850;DHT22;7517;48.400;11.770;2022-07-10T14:53:02;24.40;43.20
14850;DHT22;7517;48.400;11.770;2022-07-10T14:55:30;24.40;43.00
14850;DHT22;7517;48.400;11.770;2022-07-10T14:57:57;24.40;43.10
14850;DHT22;7517;48.400;11.770;2022-07-10T15:00:24;24.40;42.90
14850;DHT22;7517;48.400;11.770;2022-07-10T15:02:51;24.40;42.60
14850;DHT22;7517;48.400;11.770;2022-07-10T15:05:19;24.40;42.30
14850;DHT22;7517;48.400;11.770;2022-07-10T15:07:47;24.40;42.70
14850;DHT22;7517;48.400;11.770;2022-07-10T15:10:14;24.40;43.00
14850;DHT22;7517;48.400;11.770;2022-07-10T15:12:44;24.30;43.00
14850;DHT22;7517;48.400;11.770;2022-07-10T15:15:11;24.40;43.10
14850;DHT22;7517;48.400;11.770;2022-07-10T15:17:39;24.40;42.90
14850;DHT22;7517;48.400;11.770;2022-07-10T15:20:07;24.40;42.70
14850;DHT22;7517;48.400;11.770;2022-07-10T15:22:35;24.30;42.70
14850;DHT22;7517;48.400;11.770;2022-07-10T15:25:04;24.30;42.20
14850;DHT22;7517;48.400;11.770;2022-07-10T15:27:31;24.30;42.40
14850;DHT22;7517;48.400;11.770;2022-07-10T15:29:58;24.30;42.50
14850;DHT22;7517;48.400;11.770;2022-07-10T15:32:25;24.30;42.50
14850;DHT22;7517;48.400;11.770;2022-07-10T15:34:52;24.30;42.40
14850;DHT22;7517;48.400;11.770;2022-07-10T15:37:19;24.30;42.40
14850;DHT22;7517;48.400;11.770;2022-07-10T15:39:48;24.30;42.60
14850;DHT22;7517;48.400;11.770;2022-07-10T15:42:17;24.30;42.50
14850;DHT22;7517;48.400;11.770;2022-07-10T15:44:44;24.30;42.50
14850;DHT22;7517;48.400;11.770;2022-07-10T15:47:11;24.20;42.30
14850;DHT22;7517;48.400;11.770;2022-07-10T15:49:38;24.20;42.20
14850;DHT22;7517;48.400;11.770;2022-07-10T15:52:06;24.10;42.20
14850;DHT22;7517;48.400;11.770;2022-07-10T15:54:34;24.10;42.40